Sikania — D5KI7 — position and weather

sailwx.info

Track history (hours):
 
Tides and Currents Weather Stations Pressure Air Temp Water Temp Dewpoint Dewpoint Depression Visibility Wind Speed Wind Dir Waves Ship Positions

Sikania

Last reported at 2018-Jun-23 15:27 UTC. Time now 2018-Jun-24 03:42 UTC.
Position N 46°37' E 031°02'.

Length 190 m; draft 5.9 m.

Type: Cargo ship. MMSI: 636017321.

Date/timePositionNaut miles runAvg speedWind from/ knotsBaromVisibWave heightAir tempDewpointWater temp
2018-Jun-23 15:27N 46°37' E 031°02'2 3.6
2018-Jun-23 14:59N 46°35' E 031°01'3 7.1
2018-Jun-23 14:31N 46°33' E 030°58'4 8.0
2018-Jun-23 14:01N 46°29' E 030°57'612.0
2018-Jun-23 13:31N 46°23' E 030°57'16213.1
2018-Jun-23 01:06N 43°44' E 030°09'214.2
2018-Jun-23 00:57N 43°42' E 030°09'4414.1
2018-Jun-22 21:51N 43°00' E 029°52'514.2
2018-Jun-22 21:30N 42°55' E 029°50'714.2
2018-Jun-22 21:01N 42°48' E 029°48'714.1
2018-Jun-22 20:30N 42°42' E 029°45'714.0
2018-Jun-22 20:00N 42°35' E 029°43'714.0
2018-Jun-22 19:30N 42°28' E 029°40'713.9
2018-Jun-22 18:59N 42°21' E 029°38'1913.7
2018-Jun-22 17:37N 42°03' E 029°31'213.6
2018-Jun-22 17:30N 42°02' E 029°30'  
Track history (hours):
 
Tides and Currents Weather Stations Pressure Air Temp Water Temp Dewpoint Dewpoint Depression Visibility Wind Speed Wind Dir Waves Ship Positions

Sikania

Last reported at 2018-Jun-23 15:27 UTC. Time now 2018-Jun-24 03:42 UTC.
Position N 46°37' E 031°02'.

Length 190 m; draft 5.9 m.

Type: Cargo ship. MMSI: 636017321.

Date/timePositionNaut miles runAvg speedWind from/ knotsBaromVisibWave heightAir tempDewpointWater temp
2018-Jun-23 15:27N 46°37' E 031°02'2 3.6
2018-Jun-23 14:59N 46°35' E 031°01'3 7.1
2018-Jun-23 14:31N 46°33' E 030°58'4 8.0
2018-Jun-23 14:01N 46°29' E 030°57'612.0
2018-Jun-23 13:31N 46°23' E 030°57'16213.1
2018-Jun-23 01:06N 43°44' E 030°09'214.2
2018-Jun-23 00:57N 43°42' E 030°09'4414.1
2018-Jun-22 21:51N 43°00' E 029°52'514.2
2018-Jun-22 21:30N 42°55' E 029°50'714.2
2018-Jun-22 21:01N 42°48' E 029°48'714.1
2018-Jun-22 20:30N 42°42' E 029°45'714.0
2018-Jun-22 20:00N 42°35' E 029°43'714.0
2018-Jun-22 19:30N 42°28' E 029°40'713.9
2018-Jun-22 18:59N 42°21' E 029°38'1913.7
2018-Jun-22 17:37N 42°03' E 029°31'213.6
2018-Jun-22 17:30N 42°02' E 029°30'  

Dump ship's entire track history